Time;durP1;ratioP1;P1;durP2;ratioP2;P2;SDS_P1;SDS_P2;PMS_P1;PMS_P2;Temp;Humidity;BMP_temperature;BMP_pressure;BME280_temperature;BME280_humidity;BME280_pressure;Samples;Min_cycle;Max_cycle;Signal;HPM_P1;HPM_P2
2022/10/21 00:00:25;;;;;;;16.92;11.13;;;14.60;99.90;;;;;;4953303;28;20072;-77
2022/10/21 00:02:50;;;;;;;18.02;10.52;;;14.60;99.90;;;;;;4980420;28;20031;-76
2022/10/21 00:05:16;;;;;;;16.75;10.40;;;14.60;99.90;;;;;;4961620;28;20032;-77
2022/10/21 00:07:42;;;;;;;17.40;11.98;;;14.60;99.90;;;;;;4979881;28;20114;-77
2022/10/21 00:10:08;;;;;;;14.95;9.88;;;14.60;99.90;;;;;;4944777;28;20498;-77
2022/10/21 00:12:33;;;;;;;24.15;13.23;;;14.60;99.90;;;;;;4966583;28;20023;-77
2022/10/21 00:14:59;;;;;;;18.67;11.90;;;14.60;99.90;;;;;;4928784;28;20034;-77
2022/10/21 00:17:24;;;;;;;13.07;10.40;;;14.60;99.90;;;;;;4948916;28;20022;-77
2022/10/21 00:19:50;;;;;;;15.63;10.25;;;14.60;99.90;;;;;;4946552;28;20030;-77
2022/10/21 00:22:15;;;;;;;16.38;10.15;;;14.50;99.90;;;;;;4949583;28;20089;-77
2022/10/21 00:24:41;;;;;;;18.45;9.45;;;14.60;99.90;;;;;;4965191;28;20031;-77
2022/10/21 00:27:07;;;;;;;16.55;9.60;;;14.60;99.90;;;;;;4962377;28;20060;-77
2022/10/21 00:29:32;;;;;;;21.90;11.15;;;14.50;99.90;;;;;;4963630;28;20477;-77
2022/10/21 00:31:58;;;;;;;19.85;10.73;;;14.50;99.90;;;;;;4962288;28;20042;-77
2022/10/21 00:34:23;;;;;;;19.08;11.05;;;14.50;99.90;;;;;;4983219;28;20444;-76
2022/10/21 00:36:49;;;;;;;16.70;10.55;;;14.50;99.90;;;;;;4947949;28;20039;-77
2022/10/21 00:39:14;;;;;;;15.38;9.73;;;14.50;99.90;;;;;;4952438;28;20409;-77
2022/10/21 00:41:40;;;;;;;20.10;10.38;;;14.60;99.90;;;;;;4949885;28;20035;-77
2022/10/21 00:44:07;;;;;;;18.73;11.25;;;14.50;99.90;;;;;;4980271;28;20077;-77
2022/10/21 00:46:51;;;;;;;17.98;10.80;;;14.50;99.90;;;;;;4947997;28;20564;-76
2022/10/21 00:49:35;;;;;;;16.63;10.57;;;14.40;99.90;;;;;;4952116;28;20114;-77
2022/10/21 00:52:01;;;;;;;18.75;10.82;;;14.40;99.90;;;;;;4982335;28;20034;-77
2022/10/21 00:54:26;;;;;;;15.85;11.15;;;14.30;99.90;;;;;;4979157;28;20045;-77
2022/10/21 00:56:53;;;;;;;14.82;10.18;;;14.30;99.90;;;;;;4949248;28;20491;-77
2022/10/21 00:59:19;;;;;;;20.25;10.95;;;14.30;99.90;;;;;;4950064;28;20129;-76
2022/10/21 01:01:44;;;;;;;18.58;11.70;;;14.30;99.90;;;;;;4979736;28;20078;-76
2022/10/21 01:04:10;;;;;;;22.50;10.80;;;14.20;99.90;;;;;;4950173;28;20026;-77
2022/10/21 01:06:35;;;;;;;16.63;9.63;;;14.20;99.90;;;;;;4952344;28;20437;-77
2022/10/21 01:09:01;;;;;;;14.82;9.50;;;14.20;99.90;;;;;;4945324;28;20435;-77
2022/10/21 01:11:26;;;;;;;16.33;9.90;;;14.20;99.90;;;;;;4963532;28;20034;-77
2022/10/21 01:14:06;;;;;;;17.75;9.23;;;14.20;99.90;;;;;;4966219;28;20185;-77
2022/10/21 01:16:49;;;;;;;16.55;10.35;;;14.20;99.90;;;;;;4968537;28;20034;-76
2022/10/21 01:19:51;;;;;;;15.63;9.27;;;14.20;99.90;;;;;;4959731;28;20522;-78
2022/10/21 01:22:30;;;;;;;18.50;10.85;;;14.20;99.90;;;;;;4962922;28;20034;-77
2022/10/21 01:25:18;;;;;;;21.00;11.27;;;14.20;99.90;;;;;;4953426;28;20034;-77
2022/10/21 01:28:05;;;;;;;14.45;10.13;;;14.10;99.90;;;;;;4951552;28;20200;-77
2022/10/21 01:30:43;;;;;;;18.20;9.82;;;14.10;99.90;;;;;;4978993;28;20031;-77
2022/10/21 01:33:40;;;;;;;14.52;10.05;;;14.10;99.90;;;;;;4978891;28;20038;-77
2022/10/21 01:36:28;;;;;;;21.02;11.43;;;14.10;99.90;;;;;;4966410;28;20037;-77
2022/10/21 01:39:16;;;;;;;14.38;10.00;;;14.00;99.90;;;;;;4979991;28;20490;-77
2022/10/21 01:41:46;;;;;;;19.75;11.23;;;14.00;99.90;;;;;;4960899;28;21042;-77
2022/10/21 01:44:30;;;;;;;19.00;9.18;;;13.90;99.90;;;;;;4945597;28;20045;-77
2022/10/21 01:47:07;;;;;;;18.83;10.82;;;13.90;99.90;;;;;;4963638;28;20054;-77
2022/10/21 01:49:37;;;;;;;16.05;9.65;;;13.90;99.90;;;;;;4953037;28;20125;-76
2022/10/21 01:52:03;;;;;;;16.02;9.35;;;13.90;99.90;;;;;;4965334;28;20026;-77
2022/10/21 01:54:34;;;;;;;10.45;8.73;;;13.90;99.90;;;;;;4966354;28;20088;-77
2022/10/21 01:56:59;;;;;;;18.90;9.48;;;13.80;99.90;;;;;;4951478;28;20685;-77
2022/10/21 01:59:26;;;;;;;13.38;7.65;;;13.70;99.90;;;;;;4968405;28;20057;-77
2022/10/21 02:01:52;;;;;;;13.27;9.23;;;13.70;99.90;;;;;;4952539;28;20045;-77
2022/10/21 02:04:17;;;;;;;12.60;8.35;;;13.60;99.90;;;;;;4956754;28;20039;-77
2022/10/21 02:06:43;;;;;;;12.30;8.48;;;13.60;99.90;;;;;;4955398;28;20042;-77
2022/10/21 02:09:08;;;;;;;12.68;8.73;;;13.70;99.90;;;;;;4953002;28;20026;-77
2022/10/21 02:11:34;;;;;;;10.57;6.80;;;13.60;99.90;;;;;;4968259;28;20034;-77
2022/10/21 02:14:12;;;;;;;11.95;6.80;;;13.70;99.90;;;;;;4952910;28;20066;-77
2022/10/21 02:16:38;;;;;;;9.18;6.90;;;13.70;99.90;;;;;;4951606;28;20398;-77
2022/10/21 02:19:05;;;;;;;9.45;6.53;;;13.60;99.90;;;;;;4950918;28;20031;-76
2022/10/21 02:21:33;;;;;;;9.05;7.03;;;13.60;99.90;;;;;;4968592;28;20079;-77
2022/10/21 02:24:19;;;;;;;12.60;6.25;;;13.50;99.90;;;;;;4955182;28;20515;-77
2022/10/21 02:26:45;;;;;;;9.85;6.85;;;13.50;99.90;;;;;;4966547;28;20054;-77
2022/10/21 02:29:11;;;;;;;8.88;6.65;;;13.40;99.90;;;;;;4952857;28;20085;-77
2022/10/21 02:31:44;;;;;;;7.28;5.82;;;13.50;99.90;;;;;;4951994;28;20447;-77
2022/10/21 02:34:38;;;;;;;8.65;5.70;;;13.50;99.90;;;;;;4966388;28;20078;-77
2022/10/21 02:37:19;;;;;;;9.80;5.82;;;13.50;99.90;;;;;;4967784;28;20561;-77
2022/10/21 02:39:55;;;;;;;9.40;5.45;;;13.50;99.90;;;;;;4972194;28;20498;-76
2022/10/21 02:42:24;;;;;;;8.45;5.05;;;13.50;99.90;;;;;;4953079;28;20034;-77
2022/10/21 02:44:51;;;;;;;7.53;4.90;;;13.50;99.90;;;;;;4956352;28;20041;-77
2022/10/21 02:47:16;;;;;;;8.38;4.95;;;13.50;99.90;;;;;;4969231;28;20508;-77
2022/10/21 02:49:43;;;;;;;6.45;5.00;;;13.50;99.90;;;;;;4967069;28;20031;-77
2022/10/21 02:52:09;;;;;;;7.13;4.55;;;13.40;99.90;;;;;;4969925;28;20049;-77
2022/10/21 02:54:34;;;;;;;5.22;4.38;;;13.50;99.90;;;;;;4952234;28;20042;-76
2022/10/21 02:57:00;;;;;;;5.55;4.57;;;13.50;99.90;;;;;;4962477;28;20406;-77
2022/10/21 02:59:25;;;;;;;6.35;4.80;;;13.50;99.90;;;;;;4951469;28;20035;-78
2022/10/21 03:01:51;;;;;;;6.20;4.25;;;13.60;99.90;;;;;;4951619;28;20027;-77
2022/10/21 03:04:16;;;;;;;7.63;4.25;;;13.50;99.90;;;;;;4955138;28;20038;-77
2022/10/21 03:06:42;;;;;;;5.93;3.85;;;13.60;99.90;;;;;;4984536;28;20074;-77
2022/10/21 03:09:07;;;;;;;7.85;4.25;;;13.60;99.90;;;;;;4969653;28;20046;-78
2022/10/21 03:11:33;;;;;;;4.35;3.53;;;13.60;99.90;;;;;;4955491;28;20041;-77
2022/10/21 03:13:58;;;;;;;5.75;4.07;;;13.60;99.90;;;;;;4964220;28;20416;-77
2022/10/21 03:16:24;;;;;;;8.25;4.10;;;13.60;99.90;;;;;;4952200;28;20043;-78
2022/10/21 03:18:49;;;;;;;4.93;3.28;;;13.60;99.90;;;;;;4953302;28;20030;-78
2022/10/21 03:21:15;;;;;;;6.50;3.55;;;13.60;99.90;;;;;;4954499;28;20644;-77
2022/10/21 03:23:40;;;;;;;5.22;3.33;;;13.60;99.90;;;;;;4952989;28;20030;-76
2022/10/21 03:26:06;;;;;;;4.10;2.78;;;13.60;99.90;;;;;;4966670;28;20130;-77
2022/10/21 03:28:31;;;;;;;5.30;3.40;;;13.60;99.90;;;;;;4963431;28;20568;-77
2022/10/21 03:30:57;;;;;;;3.78;2.88;;;13.60;99.90;;;;;;4967064;28;20030;-77
2022/10/21 03:33:22;;;;;;;6.38;3.33;;;13.60;99.90;;;;;;4954018;28;20089;-77
2022/10/21 03:35:48;;;;;;;9.10;3.55;;;13.60;99.90;;;;;;4953102;28;20105;-77
2022/10/21 03:38:13;;;;;;;6.78;3.45;;;13.60;99.90;;;;;;4952534;28;20114;-77
2022/10/21 03:40:39;;;;;;;3.72;3.33;;;13.60;99.90;;;;;;4953256;28;20125;-77
2022/10/21 03:43:05;;;;;;;4.43;3.60;;;13.70;99.90;;;;;;4952719;28;20590;-77
2022/10/21 03:45:30;;;;;;;5.53;3.72;;;13.60;99.90;;;;;;4954192;28;20550;-77
2022/10/21 03:47:56;;;;;;;6.43;3.20;;;13.60;99.90;;;;;;4959969;28;20406;-78
2022/10/21 03:50:21;;;;;;;9.65;3.45;;;13.60;99.90;;;;;;4954781;28;20030;-77
2022/10/21 03:52:47;;;;;;;7.50;3.13;;;13.70;99.90;;;;;;4952230;28;20023;-77
2022/10/21 03:55:12;;;;;;;5.68;3.55;;;13.60;99.90;;;;;;4965134;28;20398;-78
2022/10/21 03:57:38;;;;;;;4.00;3.13;;;13.60;99.90;;;;;;4954078;28;20109;-77
2022/10/21 04:00:04;;;;;;;8.07;3.33;;;13.50;99.90;;;;;;4949480;28;20030;-77
2022/10/21 04:02:29;;;;;;;7.43;3.25;;;13.60;99.90;;;;;;4955911;28;20073;-77
2022/10/21 04:04:55;;;;;;;10.05;3.85;;;13.60;99.90;;;;;;4947133;28;20476;-78
2022/10/21 04:07:20;;;;;;;6.03;3.55;;;13.60;99.90;;;;;;4983152;28;20039;-77
2022/10/21 04:09:46;;;;;;;4.30;3.67;;;13.60;99.90;;;;;;4965089;28;20078;-77
2022/10/21 04:12:11;;;;;;;4.28;2.97;;;13.60;99.90;;;;;;4951553;28;20027;-78
2022/10/21 04:14:37;;;;;;;4.32;3.17;;;13.60;99.90;;;;;;4965969;28;20091;-77
2022/10/21 04:17:02;;;;;;;4.85;2.90;;;13.70;99.90;;;;;;4947847;28;20478;-78
2022/10/21 04:19:28;;;;;;;4.35;2.97;;;13.70;99.90;;;;;;4952342;28;20558;-78
2022/10/21 04:21:53;;;;;;;6.30;2.90;;;13.70;99.90;;;;;;4950108;28;20053;-78
2022/10/21 04:24:19;;;;;;;9.90;3.42;;;13.70;99.90;;;;;;4980324;28;20142;-78
2022/10/21 04:26:44;;;;;;;5.30;3.10;;;13.70;99.90;;;;;;4963483;28;20397;-78
2022/10/21 04:29:10;;;;;;;9.30;3.35;;;13.60;99.90;;;;;;4950291;28;20593;-78
2022/10/21 04:31:36;;;;;;;5.43;3.17;;;13.60;99.90;;;;;;4948581;28;20458;-78
2022/10/21 04:34:01;;;;;;;8.32;3.50;;;13.60;99.90;;;;;;4951716;28;20433;-78
2022/10/21 04:36:27;;;;;;;4.80;3.28;;;13.70;99.90;;;;;;4966004;28;20093;-78
2022/10/21 04:38:52;;;;;;;4.97;2.95;;;13.70;99.90;;;;;;4966626;28;20492;-78
2022/10/21 04:41:18;;;;;;;4.38;2.85;;;13.60;99.90;;;;;;4949428;28;20478;-78
2022/10/21 04:43:43;;;;;;;6.80;3.25;;;13.70;99.90;;;;;;4952765;28;20394;-78
2022/10/21 04:46:10;;;;;;;6.32;3.33;;;13.70;99.90;;;;;;4951758;28;20075;-78
2022/10/21 04:48:36;;;;;;;3.92;3.17;;;13.70;99.90;;;;;;4952229;28;20371;-78
2022/10/21 04:51:02;;;;;;;7.97;3.17;;;13.80;99.90;;;;;;4980865;28;20089;-78
2022/10/21 04:53:27;;;;;;;7.78;3.22;;;13.80;99.90;;;;;;4981855;28;20146;-78
2022/10/21 04:55:53;;;;;;;3.97;2.88;;;13.80;99.90;;;;;;4944970;28;20038;-79
2022/10/21 04:58:19;;;;;;;7.53;3.10;;;13.80;99.90;;;;;;4948594;28;20450;-78
2022/10/21 05:00:44;;;;;;;11.40;2.90;;;13.90;99.90;;;;;;4961138;28;20114;-78
2022/10/21 05:03:10;;;;;;;6.70;2.85;;;13.90;99.90;;;;;;4961638;28;20118;-78
2022/10/21 05:05:35;;;;;;;4.38;2.58;;;13.80;99.90;;;;;;4966985;28;20054;-78
2022/10/21 05:08:03;;;;;;;5.47;3.53;;;13.90;99.90;;;;;;4965130;28;20034;-76
2022/10/21 05:10:29;;;;;;;5.10;2.92;;;13.80;99.90;;;;;;4954825;28;20064;-78
2022/10/21 05:12:56;;;;;;;6.18;2.83;;;13.90;99.90;;;;;;4982445;28;20031;-78
2022/10/21 05:15:22;;;;;;;5.93;3.25;;;13.90;99.90;;;;;;4951614;28;20505;-78
2022/10/21 05:17:47;;;;;;;4.97;3.42;;;13.90;99.90;;;;;;4945650;28;20050;-77
2022/10/21 05:20:13;;;;;;;3.35;2.40;;;13.80;99.90;;;;;;4952087;28;20027;-78
2022/10/21 05:22:38;;;;;;;5.07;2.38;;;13.80;99.90;;;;;;4954148;28;20031;-78
2022/10/21 05:25:04;;;;;;;7.25;3.15;;;13.80;99.90;;;;;;4950500;28;20363;-77
2022/10/21 05:27:31;;;;;;;4.93;2.90;;;13.90;99.90;;;;;;4963826;28;20030;-78
2022/10/21 05:29:57;;;;;;;5.95;3.00;;;13.90;99.90;;;;;;4948873;28;20074;-78
2022/10/21 05:32:23;;;;;;;7.68;2.95;;;13.90;99.90;;;;;;4952784;28;20033;-77
2022/10/21 05:34:48;;;;;;;4.53;2.85;;;13.90;99.90;;;;;;4963469;28;20042;-78
2022/10/21 05:37:14;;;;;;;5.97;3.20;;;13.90;99.90;;;;;;4948836;28;20064;-78
2022/10/21 05:39:39;;;;;;;6.05;2.83;;;13.90;99.90;;;;;;4951544;28;20035;-78
2022/10/21 05:42:05;;;;;;;6.57;3.03;;;13.90;99.90;;;;;;4962170;28;20158;-77
2022/10/21 05:44:30;;;;;;;5.45;3.10;;;13.90;99.90;;;;;;4952852;28;20030;-77
2022/10/21 05:46:56;;;;;;;6.03;2.90;;;13.90;99.90;;;;;;4964914;28;20486;-78
2022/10/21 05:49:21;;;;;;;7.22;3.47;;;13.90;99.90;;;;;;4950402;28;20042;-77
2022/10/21 05:51:47;;;;;;;5.72;3.05;;;13.90;99.90;;;;;;4965085;28;20113;-78
2022/10/21 05:54:13;;;;;;;5.95;3.67;;;13.90;99.90;;;;;;4968036;28;20121;-77
2022/10/21 05:56:40;;;;;;;9.43;3.10;;;13.90;99.90;;;;;;4952322;28;20084;-77
2022/10/21 05:59:06;;;;;;;8.50;3.10;;;13.80;99.90;;;;;;4965837;28;20038;-77
2022/10/21 06:01:31;;;;;;;4.40;3.13;;;13.80;99.90;;;;;;4963271;28;20035;-78
2022/10/21 06:03:57;;;;;;;7.57;2.83;;;13.80;99.90;;;;;;4949400;28;20034;-78
2022/10/21 06:06:22;;;;;;;4.53;2.50;;;13.80;99.90;;;;;;4965874;28;20448;-78
2022/10/21 06:08:48;;;;;;;9.23;3.10;;;13.70;99.90;;;;;;4960855;28;20098;-77
2022/10/21 06:11:15;;;;;;;6.57;3.33;;;13.70;99.90;;;;;;4950980;28;20092;-77
2022/10/21 06:13:40;;;;;;;5.05;2.70;;;13.60;99.90;;;;;;4966453;28;20038;-78
2022/10/21 06:16:06;;;;;;;4.57;2.70;;;13.60;99.90;;;;;;4965569;28;20035;-78
2022/10/21 06:18:32;;;;;;;4.88;3.03;;;13.70;99.90;;;;;;4951481;28;20039;-78
2022/10/21 06:20:58;;;;;;;5.97;2.63;;;13.60;99.90;;;;;;4944448;28;20034;-77
2022/10/21 06:23:23;;;;;;;5.22;3.17;;;13.60;99.90;;;;;;4967757;28;20054;-78
2022/10/21 06:26:01;;;;;;;5.10;3.15;;;13.50;99.90;;;;;;4963481;28;20030;-78
2022/10/21 06:28:28;;;;;;;6.03;3.15;;;13.50;99.90;;;;;;4952077;28;20062;-77
2022/10/21 06:30:53;;;;;;;4.95;3.05;;;13.50;99.90;;;;;;4964371;28;20030;-76
2022/10/21 06:33:19;;;;;;;5.40;2.53;;;13.50;99.90;;;;;;4961249;28;20081;-77
2022/10/21 06:35:44;;;;;;;5.93;3.15;;;13.50;99.90;;;;;;4963825;28;20065;-77
2022/10/21 06:38:11;;;;;;;5.97;3.55;;;13.50;99.90;;;;;;4945686;28;20027;-78
2022/10/21 06:40:37;;;;;;;3.38;2.55;;;13.60;99.90;;;;;;4966936;28;20038;-78
2022/10/21 06:43:02;;;;;;;7.18;3.35;;;13.50;99.90;;;;;;4959083;28;20030;-77
2022/10/21 06:45:29;;;;;;;5.35;2.83;;;13.60;99.90;;;;;;4967057;28;20050;-78
2022/10/21 06:47:54;;;;;;;7.85;2.92;;;13.60;99.90;;;;;;4968134;28;20035;-78
2022/10/21 06:50:20;;;;;;;5.22;2.75;;;13.60;99.90;;;;;;4965308;28;20034;-78
2022/10/21 06:52:47;;;;;;;8.32;3.00;;;13.60;99.90;;;;;;4965707;28;20402;-77
2022/10/21 06:55:13;;;;;;;12.98;3.20;;;13.60;99.90;;;;;;4983213;28;20049;-77
2022/10/21 06:57:39;;;;;;;5.00;2.58;;;13.50;99.90;;;;;;4953307;28;20030;-77
2022/10/21 07:00:05;;;;;;;8.23;3.75;;;13.60;99.90;;;;;;4957370;28;20034;-78
2022/10/21 07:02:30;;;;;;;7.78;3.00;;;13.60;99.90;;;;;;4951886;28;20085;-77
2022/10/21 07:04:56;;;;;;;4.32;2.90;;;13.60;99.90;;;;;;4944570;28;20498;-78
2022/10/21 07:07:22;;;;;;;5.68;2.90;;;13.70;99.90;;;;;;4952219;28;20133;-77
2022/10/21 07:09:48;;;;;;;6.75;3.85;;;13.70;99.90;;;;;;4962655;28;20464;-77
2022/10/21 07:12:13;;;;;;;5.78;2.80;;;13.60;99.90;;;;;;4947547;28;20117;-78
2022/10/21 07:14:39;;;;;;;7.25;3.60;;;13.70;99.90;;;;;;4967838;28;20118;-78
2022/10/21 07:17:04;;;;;;;6.60;3.08;;;13.70;99.90;;;;;;4951657;28;20031;-77
2022/10/21 07:19:31;;;;;;;4.00;2.53;;;13.70;99.90;;;;;;4963422;28;20035;-78
2022/10/21 07:21:56;;;;;;;3.40;2.60;;;13.80;99.90;;;;;;4965736;28;20035;-78
2022/10/21 07:24:22;;;;;;;4.20;2.60;;;13.90;99.90;;;;;;4965633;28;20061;-78
2022/10/21 07:26:47;;;;;;;5.78;3.08;;;13.90;99.90;;;;;;4951603;28;20395;-77
2022/10/21 07:29:13;;;;;;;13.68;5.10;;;13.90;99.90;;;;;;4965850;28;20038;-77
2022/10/21 07:31:38;;;;;;;7.15;3.08;;;13.90;99.90;;;;;;4963863;28;20042;-77
2022/10/21 07:34:05;;;;;;;5.90;2.83;;;14.00;99.90;;;;;;4959299;28;20047;-76
2022/10/21 07:36:32;;;;;;;7.22;3.35;;;14.10;99.90;;;;;;4964157;28;20041;-75
2022/10/21 07:39:01;;;;;;;6.38;3.05;;;14.10;99.90;;;;;;4947890;28;20034;-78
2022/10/21 07:41:32;;;;;;;7.43;2.60;;;14.20;99.90;;;;;;4967375;28;20512;-78
2022/10/21 07:43:57;;;;;;;6.38;2.90;;;14.30;99.90;;;;;;4951397;28;20126;-78
2022/10/21 07:46:23;;;;;;;3.60;2.97;;;14.30;99.90;;;;;;4981875;28;20449;-76
2022/10/21 07:48:49;;;;;;;8.57;2.60;;;14.40;99.90;;;;;;4950518;28;20031;-77
2022/10/21 07:51:15;;;;;;;4.05;2.42;;;14.40;99.90;;;;;;4952101;28;20038;-78
2022/10/21 07:53:41;;;;;;;7.43;2.83;;;14.50;99.90;;;;;;4962088;28;20104;-78
2022/10/21 07:56:17;;;;;;;6.10;3.25;;;14.50;99.90;;;;;;4961647;28;20046;-77
2022/10/21 07:58:43;;;;;;;6.38;3.15;;;14.50;99.90;;;;;;4966594;28;20033;-77
2022/10/21 08:01:09;;;;;;;6.85;2.80;;;14.60;99.90;;;;;;4950383;28;20150;-77
2022/10/21 08:03:34;;;;;;;8.50;2.53;;;14.70;99.90;;;;;;4944948;28;20093;-77
2022/10/21 08:06:00;;;;;;;10.35;3.33;;;14.70;99.90;;;;;;4949908;28;20030;-77
2022/10/21 08:08:26;;;;;;;6.47;3.17;;;14.80;99.90;;;;;;4968083;28;20034;-77
2022/10/21 08:10:52;;;;;;;10.77;3.22;;;14.80;99.90;;;;;;4963095;28;20034;-77
2022/10/21 08:13:18;;;;;;;7.07;3.25;;;14.90;99.90;;;;;;4947723;28;20041;-77
2022/10/21 08:15:44;;;;;;;6.25;3.15;;;14.90;99.90;;;;;;4952753;28;20394;-76
2022/10/21 08:18:10;;;;;;;9.25;4.05;;;14.90;99.90;;;;;;4949697;28;20475;-76
2022/10/21 08:20:39;;;;;;;8.27;3.90;;;15.00;99.90;;;;;;4953943;28;20034;-77
2022/10/21 08:23:07;;;;;;;8.52;2.83;;;15.10;99.90;;;;;;4946991;28;20023;-77
2022/10/21 08:25:33;;;;;;;8.45;3.42;;;15.00;99.90;;;;;;4963245;28;20023;-76
2022/10/21 08:27:58;;;;;;;10.65;3.30;;;15.10;99.90;;;;;;4960986;28;20033;-77
2022/10/21 08:30:28;;;;;;;5.60;3.50;;;15.10;99.90;;;;;;4959850;28;20451;-76
2022/10/21 08:32:55;;;;;;;7.53;2.97;;;15.10;99.90;;;;;;4961351;28;20371;-77
2022/10/21 08:35:20;;;;;;;6.32;3.22;;;15.20;99.90;;;;;;4951097;28;20054;-77
2022/10/21 08:37:47;;;;;;;7.65;3.65;;;15.10;99.90;;;;;;4965397;28;20038;-76
2022/10/21 08:40:13;;;;;;;9.27;2.92;;;15.20;99.90;;;;;;4966528;28;20085;-76
2022/10/21 08:42:41;;;;;;;6.25;3.45;;;15.20;99.90;;;;;;4960846;28;20038;-77
2022/10/21 08:45:08;;;;;;;10.45;3.65;;;15.20;99.90;;;;;;4958588;28;20049;-77
2022/10/21 08:47:44;;;;;;;6.55;2.75;;;15.20;99.90;;;;;;4950685;28;20046;-77
2022/10/21 08:50:18;;;;;;;14.55;4.15;;;15.20;99.90;;;;;;4965729;28;20038;-74
2022/10/21 08:52:58;;;;;;;6.88;4.32;;;15.10;99.90;;;;;;4978619;28;20057;-76
2022/10/21 08:55:29;;;;;;;8.30;3.80;;;15.10;99.90;;;;;;4939082;28;20053;-78
2022/10/21 08:57:55;;;;;;;8.43;3.63;;;15.10;99.90;;;;;;4960349;28;20368;-77
2022/10/21 09:00:26;;;;;;;6.07;3.63;;;15.00;99.90;;;;;;4961770;28;20037;-77
2022/10/21 09:03:04;;;;;;;8.80;4.25;;;15.00;99.90;;;;;;4945065;28;20042;-77
2022/10/21 09:05:30;;;;;;;6.30;4.00;;;15.00;99.90;;;;;;4948192;28;20034;-76
2022/10/21 09:08:17;;;;;;;7.10;4.05;;;15.00;99.90;;;;;;4976127;28;20041;-76
2022/10/21 09:11:02;;;;;;;11.73;4.38;;;15.00;99.90;;;;;;4948843;28;20118;-76
2022/10/21 09:13:56;;;;;;;12.18;4.15;;;15.00;99.90;;;;;;4961533;28;20746;-76
2022/10/21 09:16:49;;;;;;;10.73;4.65;;;14.90;99.90;;;;;;4964792;28;20486;-76
2022/10/21 09:19:17;;;;;;;9.55;4.22;;;14.90;99.90;;;;;;4964446;28;20038;-76
2022/10/21 09:21:52;;;;;;;6.70;4.00;;;14.90;99.90;;;;;;4980294;28;20049;-76
2022/10/21 09:24:28;;;;;;;7.20;3.78;;;14.90;99.90;;;;;;4964446;28;20033;-77
2022/10/21 09:26:54;;;;;;;5.63;3.92;;;14.90;99.90;;;;;;4950529;28;20569;-77
2022/10/21 09:29:33;;;;;;;6.10;3.58;;;14.90;99.90;;;;;;4948941;28;20190;-76
2022/10/21 09:32:16;;;;;;;10.85;4.35;;;14.90;99.90;;;;;;4263445;28;10000364;-77
2022/10/21 09:34:51;;;;;;;9.75;4.38;;;14.90;99.90;;;;;;4962559;28;20070;-76
2022/10/21 09:37:31;;;;;;;7.68;4.78;;;14.90;99.90;;;;;;4928124;28;20490;-76
2022/10/21 09:40:20;;;;;;;11.07;3.80;;;14.90;99.90;;;;;;4947502;28;20517;-77
2022/10/21 09:42:48;;;;;;;10.27;4.25;;;14.90;99.90;;;;;;4960755;28;20242;-76
2022/10/21 09:45:35;;;;;;;6.85;4.07;;;14.90;99.90;;;;;;4942467;28;20154;-76
2022/10/21 09:48:05;;;;;;;10.15;4.63;;;14.90;99.90;;;;;;4949777;28;20115;-77
2022/10/21 09:50:31;;;;;;;6.00;4.05;;;14.90;99.90;;;;;;4950583;28;20097;-76
2022/10/21 09:53:04;;;;;;;8.88;4.25;;;14.90;99.90;;;;;;4945371;28;20030;-76
2022/10/21 09:55:30;;;;;;;8.27;4.47;;;14.90;99.90;;;;;;4944350;28;20022;-76
2022/10/21 09:57:57;;;;;;;8.38;4.82;;;15.00;99.90;;;;;;4943802;28;20629;-76
2022/10/21 10:00:46;;;;;;;9.13;4.55;;;15.00;99.90;;;;;;4948033;28;20030;-77
2022/10/21 10:03:11;;;;;;;8.15;3.97;;;15.00;99.90;;;;;;4931291;28;24319;-76
2022/10/21 10:05:42;;;;;;;5.57;3.72;;;15.00;99.90;;;;;;4957792;28;20042;-76
2022/10/21 10:08:35;;;;;;;7.30;3.55;;;15.10;99.90;;;;;;4948226;28;20022;-77
2022/10/21 10:11:01;;;;;;;5.75;3.60;;;15.10;99.90;;;;;;4957245;28;20030;-76
2022/10/21 10:13:27;;;;;;;5.03;3.35;;;15.10;99.90;;;;;;4980415;28;20041;-76
2022/10/21 10:15:53;;;;;;;8.18;3.50;;;15.10;99.90;;;;;;4962252;28;20033;-76
2022/10/21 10:18:22;;;;;;;8.55;4.35;;;15.10;99.90;;;;;;4968013;28;20031;-76
2022/10/21 10:21:05;;;;;;;5.28;3.40;;;15.10;99.90;;;;;;4964394;28;20034;-77
2022/10/21 10:23:30;;;;;;;4.25;3.60;;;15.10;99.90;;;;;;4964017;28;20128;-76
2022/10/21 10:25:56;;;;;;;9.52;4.22;;;15.10;99.90;;;;;;4952459;28;20077;-76
2022/10/21 10:28:24;;;;;;;5.65;3.08;;;15.10;99.90;;;;;;4951744;28;20070;-76
2022/10/21 10:30:54;;;;;;;6.68;3.30;;;15.10;99.90;;;;;;4952772;28;20031;-76
2022/10/21 10:33:27;;;;;;;4.28;3.28;;;15.10;99.90;;;;;;4937364;28;20120;-76
2022/10/21 10:36:00;;;;;;;7.60;3.30;;;15.10;99.90;;;;;;4951785;28;20118;-76
2022/10/21 10:38:27;;;;;;;7.55;3.15;;;15.10;99.90;;;;;;4954842;28;20512;-76
2022/10/21 10:40:53;;;;;;;5.97;2.97;;;15.10;99.90;;;;;;4964365;28;20195;-76
2022/10/21 10:43:29;;;;;;;8.43;3.10;;;15.10;99.90;;;;;;4954722;28;20117;-76
2022/10/21 10:45:56;;;;;;;9.43;2.97;;;15.10;99.90;;;;;;4946473;28;20042;-76
2022/10/21 10:48:26;;;;;;;4.88;2.80;;;15.10;99.90;;;;;;4967637;28;20034;-76
2022/10/21 10:50:52;;;;;;;3.65;2.85;;;15.20;99.90;;;;;;4965585;28;20070;-76
2022/10/21 10:53:29;;;;;;;9.63;3.03;;;15.20;99.90;;;;;;4967843;28;20430;-76
2022/10/21 10:56:05;;;;;;;7.32;3.08;;;15.20;99.90;;;;;;4953094;28;20458;-76
2022/10/21 10:58:35;;;;;;;8.25;2.85;;;15.20;99.90;;;;;;4968029;28;20053;-77
2022/10/21 11:01:06;;;;;;;6.15;2.70;;;15.20;99.90;;;;;;4952306;28;20109;-76
2022/10/21 11:03:41;;;;;;;8.32;3.13;;;15.20;99.90;;;;;;4938096;28;20371;-76
2022/10/21 11:06:15;;;;;;;5.67;2.57;;;15.20;99.90;;;;;;4959176;28;20117;-76
2022/10/21 11:08:42;;;;;;;5.30;3.03;;;15.20;99.90;;;;;;4966505;28;20031;-76
2022/10/21 11:11:21;;;;;;;4.65;2.95;;;15.20;99.90;;;;;;4950902;28;20031;-76
2022/10/21 11:13:46;;;;;;;4.35;2.58;;;15.20;99.90;;;;;;4962482;28;20898;-76
2022/10/21 11:16:29;;;;;;;5.75;3.05;;;15.20;99.90;;;;;;4930814;28;20034;-76
2022/10/21 11:19:20;;;;;;;6.25;2.70;;;15.30;99.90;;;;;;4965237;28;20059;-76
2022/10/21 11:21:47;;;;;;;10.80;3.30;;;15.30;99.90;;;;;;4965454;28;20585;-76
2022/10/21 11:24:32;;;;;;;5.75;3.20;;;15.40;99.90;;;;;;4964242;28;20037;-76
2022/10/21 11:27:14;;;;;;;3.83;2.35;;;15.40;99.90;;;;;;4951206;28;20565;-76
2022/10/21 11:30:21;;;;;;;3.20;2.72;;;15.50;99.90;;;;;;4964089;28;20026;-76
2022/10/21 11:33:05;;;;;;;4.88;3.10;;;15.50;99.90;;;;;;4961846;28;20509;-76
2022/10/21 11:35:32;;;;;;;8.00;3.22;;;15.60;99.90;;;;;;4981357;28;20031;-77
2022/10/21 11:38:24;;;;;;;5.32;2.67;;;15.60;99.90;;;;;;4962347;28;20034;-76
2022/10/21 11:41:01;;;;;;;8.05;2.45;;;15.70;99.90;;;;;;4965280;28;20101;-76
2022/10/21 11:43:32;;;;;;;6.25;2.80;;;15.70;99.90;;;;;;4953793;28;20023;-76
2022/10/21 11:46:30;;;;;;;4.60;2.90;;;15.80;99.90;;;;;;4276453;28;10000510;-77
2022/10/21 11:49:00;;;;;;;2.63;2.20;;;15.90;99.90;;;;;;4949141;28;20030;-77
2022/10/21 11:51:38;;;;;;;4.35;3.05;;;16.00;99.90;;;;;;4961750;28;20041;-77
2022/10/21 11:54:34;;;;;;;4.78;2.45;;;16.10;99.90;;;;;;4966102;28;20558;-76
2022/10/21 11:57:10;;;;;;;8.57;2.70;;;16.20;99.90;;;;;;4966150;28;20093;-76
2022/10/21 11:59:54;;;;;;;4.18;2.25;;;16.20;99.90;;;;;;4948297;28;20038;-76
2022/10/21 12:02:38;;;;;;;5.55;2.78;;;16.40;99.90;;;;;;4981551;28;20117;-76
2022/10/21 12:05:14;;;;;;;2.50;2.30;;;16.50;99.90;;;;;;4978246;28;20027;-76
2022/10/21 12:07:52;;;;;;;6.57;2.70;;;16.60;99.90;;;;;;4955724;28;20434;-76
2022/10/21 12:10:29;;;;;;;4.50;2.97;;;16.70;99.90;;;;;;4938786;28;20061;-76
2022/10/21 12:12:54;;;;;;;5.05;2.67;;;16.80;99.90;;;;;;4979070;28;20442;-76
2022/10/21 12:15:23;;;;;;;4.10;2.90;;;16.90;99.90;;;;;;4952007;28;20039;-76
2022/10/21 12:17:48;;;;;;;6.97;2.40;;;17.10;99.90;;;;;;4952431;28;20045;-76
2022/10/21 12:20:24;;;;;;;3.60;2.30;;;17.20;99.90;;;;;;4963732;28;20038;-76
2022/10/21 12:22:49;;;;;;;4.70;3.15;;;17.20;99.90;;;;;;4961884;28;20031;-76
2022/10/21 12:25:15;;;;;;;5.72;2.45;;;17.30;99.90;;;;;;4944847;28;20097;-77
2022/10/21 12:27:50;;;;;;;4.93;3.05;;;17.40;99.90;;;;;;4965274;28;20033;-76
2022/10/21 12:30:23;;;;;;;3.55;2.40;;;17.60;99.90;;;;;;4961098;28;20065;-76
2022/10/21 12:33:11;;;;;;;2.90;2.00;;;17.70;99.90;;;;;;4949850;28;20027;-76
2022/10/21 12:35:54;;;;;;;4.03;2.85;;;17.90;99.90;;;;;;4962182;28;20045;-76
2022/10/21 12:38:42;;;;;;;2.17;1.95;;;18.00;99.90;;;;;;4954182;28;20038;-76
2022/10/21 12:41:22;;;;;;;3.58;1.92;;;18.10;99.90;;;;;;4963488;28;20031;-76
2022/10/21 12:43:59;;;;;;;5.18;2.65;;;18.20;99.90;;;;;;4980375;28;20034;-76
2022/10/21 12:46:46;;;;;;;3.75;1.70;;;18.40;99.90;;;;;;4976235;28;20434;-77
2022/10/21 12:49:23;;;;;;;;;;;18.50;99.90;;;;;;4963545;28;20041;-76
2022/10/21 12:51:57;;;;;;;4.10;1.90;;;18.50;99.90;;;;;;4980114;28;19995;-76
2022/10/21 12:54:24;;;;;;;2.60;1.83;;;18.70;99.90;;;;;;4935073;28;20034;-74
2022/10/21 12:56:58;;;;;;;3.42;2.03;;;18.90;99.90;;;;;;4949316;28;20054;-76